Jonesboro Municipal Airport
KJBR : now visible

Airfield :











YOU CAN JOIN US ON...

 
LOGIN :

Register | Disclaimer

   EN    FR    IT 

 









Legend :    VFR   Marginal VFR   IFR   Intensive IFR   Very Intensive IFR
Visi :
Ceiling :
>= 8 km
>= 3000ft
5 to 8 km
1000 to 3000 ft
1500m to 5 km
500 to 1000 ft
800 to 1500m
200 to 500 ft
< 800m
< 200 ft
Symbols :   Thunderstorms  Fog  Heavy snow  Heavy precipitations  Wind > 20 kt






- Airport Elevation : 262 ft
- IATA code : JBR


KJBR - Jonesboro Municipal

CURRENT METAR :
  • 282153Z AUTO 04008KT 3SM BR OVC007 03/02 A3005 RMK AO2 SLP176 T00330017

EXPIRED METARs :
  • 282053Z AUTO 04006KT 2 1/2SM BR OVC006 03/02 A3005 RMK AO2 SLP178 T00330017 56015
  • 281953Z AUTO 04008KT 3SM BR OVC005 03/01 A3006 RMK AO2 SLP179 T00280011
  • 281923Z AUTO 04010KT 2 1/2SM BR OVC005 03/02 A3007 RMK AO2 T00280017
  • 281853Z AUTO 04009KT 2 1/2SM BR OVC004 03/02 A3008 RMK AO2 SLP186 T00280017

TAF KJBR
Valid from the 28 at 18:00 until the 29 at 18:00 UTC


281721Z 2818/2918 04008KT 4SM BR BKN004 OVC010
FM282000 07005KT P6SM BKN009 OVC015
FM282200 06005KT P6SM VCSH SCT010 OVC025
FM290300 05005KT 4SM -SHRA BR BKN007 OVC015
FM291200 05007KT P6SM VCSH BKN008 OVC015



MET'MAP, your aeronautical weather chart ! - Copyright ORBIFLY December 2007 - Disclaimer

ORBIFLY MET'MAP TEAM :

Programming & Development : Alexandra Zaïnal
Concept & original design : Baudouin d'Aumeries
Assistance for programming : Marc-Olivier Méhu
Technical & hardware support : Manuel Goepfert

Contact : metmap@orbifly.com




SOURCES & CREDITS :

   NOAA       Earth
Advisory